KGGG/GGG METAR and TAF weather

Enter ICAO airport designator
Station Type Date Time Source
KGGG METAR 2023/02/04 02:53 UTC NOAA

KGGG 040253Z 10SM CLR 04/02 A3050 RMK AO2 SLP332 6//// T00440017 53000 PNO


Station Type Date Time Source
KGGG Decoded METAR 2023/02/04 02:53 UTC NOAA

LONGVIEW GREGG COUNTY AIRPORT , TX, United States (KGGG) 32-23N 094-43W 107M
Feb 03, 2023 - 09:53 PM EST / 2023.02.04 0253 UTC
Visibility: 10 mile(s):0
Sky conditions: clear
Temperature: 39.9 F (4.4 C)
Dew Point: 35.1 F (1.7 C)
Relative Humidity: 82%
Pressure (altimeter): 30.5 in. Hg (1032 hPa)
Pressure tendency: 0.00 inches (0.0 hPa) higher than three hours ago
ob: KGGG 040253Z 10SM CLR 04/02 A3050 RMK AO2 SLP332 6//// T00440017 53000 PNO
cycle: 3

Station Type Date Time Source
KGGG TAF 2023/02/03 18:24 UTC NOAA

TAF KGGG 031721Z 0318/0418 03005KT P6SM SKC
FM040000 VRB03KT P6SM SKC
FM041600 16009KT P6SM SKC

Example: see airport list